Time;durP1;ratioP1;P1;durP2;ratioP2;P2;SDS_P1;SDS_P2;PMS_P1;PMS_P2;Temp;Humidity;BMP_temperature;BMP_pressure;BME280_temperature;BME280_humidity;BME280_pressure;Samples;Min_cycle;Max_cycle;Signal;HPM_P1;HPM_P2
2023/06/19 00:00:46;;;;;;;8.60;7.70;;;20.60;62.80;;;;;;5056410;28;20471;-73
2023/06/19 00:03:32;;;;;;;8.37;6.93;;;20.40;63.00;;;;;;5049248;28;20973;-73
2023/06/19 00:06:17;;;;;;;8.43;7.57;;;20.40;63.90;;;;;;5044087;28;20476;-74
2023/06/19 00:09:03;;;;;;;12.03;6.97;;;20.40;64.80;;;;;;5045981;28;20456;-74
2023/06/19 00:11:50;;;;;;;7.97;7.17;;;20.20;64.90;;;;;;5043018;28;20979;-74
2023/06/19 00:14:36;;;;;;;8.20;7.13;;;20.40;65.30;;;;;;5038971;28;20448;-74
2023/06/19 00:17:22;;;;;;;8.53;7.17;;;20.40;65.70;;;;;;5072305;22;20965;-74
2023/06/19 00:20:09;;;;;;;7.70;6.90;;;20.40;65.40;;;;;;5061415;28;20960;-73
2023/06/19 00:22:54;;;;;;;13.10;7.70;;;20.30;65.80;;;;;;5068942;28;21045;-74
2023/06/19 00:25:40;;;;;;;7.90;7.10;;;20.40;66.10;;;;;;5076180;28;20438;-74
2023/06/19 00:28:27;;;;;;;9.13;8.23;;;20.50;66.60;;;;;;5062240;28;20996;-74
2023/06/19 00:31:13;;;;;;;8.77;7.20;;;20.50;66.70;;;;;;5046515;28;20451;-73
2023/06/19 00:33:59;;;;;;;7.27;6.47;;;20.50;66.70;;;;;;5062115;28;20450;-73
2023/06/19 00:36:44;;;;;;;8.70;7.73;;;20.40;67.10;;;;;;5055032;28;20463;-73
2023/06/19 00:39:30;;;;;;;9.30;8.30;;;20.40;67.00;;;;;;5067003;28;20443;-74
2023/06/19 00:42:15;;;;;;;13.30;7.97;;;20.30;67.80;;;;;;5043250;28;20485;-72
2023/06/19 00:45:02;;;;;;;7.77;6.97;;;20.30;68.10;;;;;;5053401;28;20439;-72
2023/06/19 00:47:48;;;;;;;9.43;8.30;;;20.10;68.50;;;;;;5039388;28;21249;-72
2023/06/19 00:50:33;;;;;;;9.60;8.20;;;20.00;69.60;;;;;;5046962;28;20631;-71
2023/06/19 00:53:20;;;;;;;8.63;7.77;;;19.80;71.10;;;;;;5054985;28;20431;-71
2023/06/19 00:56:06;;;;;;;7.90;6.83;;;19.70;71.70;;;;;;5043572;28;20452;-71
2023/06/19 00:58:53;;;;;;;7.63;6.77;;;19.60;72.70;;;;;;5056472;28;20865;-72
2023/06/19 01:01:40;;;;;;;12.43;8.50;;;19.60;73.80;;;;;;5047889;28;20484;-71
2023/06/19 01:04:26;;;;;;;8.77;7.80;;;19.40;73.90;;;;;;5038970;28;20455;-71
2023/06/19 01:07:16;;;;;;;8.30;7.50;;;19.50;74.20;;;;;;5047908;28;20446;-71
2023/06/19 01:10:05;;;;;;;9.20;8.00;;;19.30;74.50;;;;;;5055264;28;20443;-72
2023/06/19 01:13:01;;;;;;;10.20;7.03;;;19.30;75.30;;;;;;5053110;28;20444;-72
2023/06/19 01:15:48;;;;;;;8.53;7.40;;;19.30;74.50;;;;;;5051290;28;20448;-72
2023/06/19 01:18:36;;;;;;;8.83;7.70;;;19.40;74.60;;;;;;5046083;28;20475;-71
2023/06/19 01:21:21;;;;;;;8.77;7.30;;;19.50;74.20;;;;;;5044288;28;20914;-71
2023/06/19 01:24:07;;;;;;;8.90;7.80;;;19.60;74.40;;;;;;5040813;28;20490;-71
2023/06/19 01:26:53;;;;;;;8.37;7.50;;;19.50;74.20;;;;;;5047150;28;20582;-72
2023/06/19 01:29:38;;;;;;;9.40;7.60;;;19.40;74.10;;;;;;5052858;28;20574;-71
2023/06/19 01:32:31;;;;;;;8.00;7.20;;;19.40;74.10;;;;;;5044786;28;20883;-71
2023/06/19 01:35:20;;;;;;;10.03;7.43;;;19.40;74.10;;;;;;5042123;28;20448;-71
2023/06/19 01:38:08;;;;;;;15.57;7.77;;;19.40;74.10;;;;;;5042511;28;20495;-71
2023/06/19 01:40:56;;;;;;;9.70;8.00;;;19.50;73.50;;;;;;5045014;28;20512;-71
2023/06/19 01:43:43;;;;;;;10.20;8.47;;;19.60;73.50;;;;;;5043409;28;20447;-71
2023/06/19 01:46:28;;;;;;;10.23;7.33;;;19.40;73.40;;;;;;5050438;28;20467;-71
2023/06/19 01:49:14;;;;;;;10.73;8.07;;;19.30;74.00;;;;;;5047903;28;20495;-72
2023/06/19 01:52:00;;;;;;;13.50;8.00;;;19.30;74.00;;;;;;5052724;28;20525;-71
2023/06/19 01:54:46;;;;;;;12.50;8.93;;;19.30;74.00;;;;;;5038163;28;20491;-72
2023/06/19 01:57:33;;;;;;;12.03;8.00;;;19.30;74.70;;;;;;5044370;28;20465;-71
2023/06/19 02:00:19;;;;;;;9.47;7.83;;;19.30;74.30;;;;;;5049687;28;20811;-72
2023/06/19 02:03:05;;;;;;;17.77;8.30;;;19.20;74.00;;;;;;5042327;28;20498;-72
2023/06/19 02:05:50;;;;;;;10.83;8.63;;;19.20;74.00;;;;;;5051496;28;20648;-71
2023/06/19 02:08:36;;;;;;;9.10;8.20;;;19.10;74.60;;;;;;5044479;28;20575;-71
2023/06/19 02:11:21;;;;;;;8.80;7.90;;;19.10;75.30;;;;;;5043583;28;20456;-71
2023/06/19 02:14:10;;;;;;;9.87;8.20;;;19.10;75.20;;;;;;5049196;28;20446;-72
2023/06/19 02:16:56;;;;;;;9.40;8.50;;;19.10;75.10;;;;;;5047325;28;20444;-72
2023/06/19 02:19:42;;;;;;;18.00;9.53;;;19.10;74.80;;;;;;5044358;28;20538;-71
2023/06/19 02:22:28;;;;;;;44.57;10.80;;;19.00;75.70;;;;;;5042975;28;20459;-71
2023/06/19 02:25:13;;;;;;;13.13;9.30;;;19.00;76.90;;;;;;5041924;28;20448;-71
2023/06/19 02:28:00;;;;;;;29.47;9.03;;;19.10;77.70;;;;;;5051253;28;20454;-72
2023/06/19 02:30:46;;;;;;;13.43;9.10;;;19.10;78.00;;;;;;5046727;28;20459;-72
2023/06/19 02:33:32;;;;;;;10.77;8.03;;;19.10;78.00;;;;;;5044014;28;21139;-71
2023/06/19 02:36:19;;;;;;;10.80;9.00;;;19.10;77.30;;;;;;5045275;28;20443;-72
2023/06/19 02:39:05;;;;;;;20.53;9.50;;;19.20;77.10;;;;;;5042405;28;20471;-71
2023/06/19 02:41:51;;;;;;;9.83;7.53;;;19.30;76.70;;;;;;5042759;28;20472;-72
2023/06/19 02:44:36;;;;;;;10.87;8.50;;;19.40;77.20;;;;;;5049226;28;20505;-72
2023/06/19 02:47:23;;;;;;;9.30;8.20;;;19.40;77.60;;;;;;5045327;28;21008;-72
2023/06/19 02:50:09;;;;;;;11.70;7.97;;;19.40;78.30;;;;;;5048209;28;20490;-72
2023/06/19 02:52:55;;;;;;;14.20;8.10;;;19.40;78.60;;;;;;5041726;28;20582;-71
2023/06/19 02:55:40;;;;;;;10.90;8.33;;;19.50;78.90;;;;;;5043739;28;20993;-72
2023/06/19 02:58:26;;;;;;;9.40;8.50;;;19.50;80.20;;;;;;5045323;28;20990;-71
2023/06/19 03:01:11;;;;;;;19.67;8.93;;;19.40;78.80;;;;;;5041386;28;20451;-71
2023/06/19 03:03:58;;;;;;;12.20;8.70;;;19.30;78.70;;;;;;5045959;28;20502;-71
2023/06/19 03:06:44;;;;;;;17.70;9.13;;;19.40;80.00;;;;;;5045035;28;21011;-72
2023/06/19 03:09:29;;;;;;;22.23;8.97;;;19.40;80.60;;;;;;5046411;28;20780;-72
2023/06/19 03:12:15;;;;;;;12.17;8.30;;;19.40;80.10;;;;;;5044474;28;20440;-71
2023/06/19 03:15:00;;;;;;;12.27;9.60;;;19.50;80.80;;;;;;5033902;28;20519;-72
2023/06/19 03:17:46;;;;;;;12.40;8.90;;;19.50;81.50;;;;;;5050121;28;20485;-71
2023/06/19 03:20:33;;;;;;;14.43;9.40;;;19.60;80.20;;;;;;5049974;28;20928;-71
2023/06/19 03:23:18;;;;;;;15.77;9.03;;;19.60;80.40;;;;;;5051116;28;20471;-71
2023/06/19 03:26:04;;;;;;;11.13;8.93;;;19.70;80.00;;;;;;5055781;28;20486;-71
2023/06/19 03:28:50;;;;;;;15.73;9.20;;;19.60;80.50;;;;;;5055475;28;20819;-71
2023/06/19 03:31:35;;;;;;;8.80;6.70;;;19.60;81.00;;;;;;5053389;28;20511;-72
2023/06/19 03:34:21;;;;;;;13.33;6.77;;;19.80;82.20;;;;;;5058109;28;20447;-71
2023/06/19 03:37:08;;;;;;;8.30;5.80;;;20.10;80.90;;;;;;5040847;28;20562;-71
2023/06/19 03:39:53;;;;;;;8.50;5.73;;;20.40;80.20;;;;;;5063598;28;20456;-71
2023/06/19 03:42:39;;;;;;;8.63;6.60;;;20.60;79.10;;;;;;5050907;28;21024;-72
2023/06/19 03:45:24;;;;;;;8.77;5.77;;;20.80;78.00;;;;;;5064176;28;20478;-72
2023/06/19 03:48:10;;;;;;;9.90;5.97;;;21.00;77.30;;;;;;5034368;28;20943;-72
2023/06/19 03:50:56;;;;;;;10.20;5.63;;;21.10;76.90;;;;;;5049208;28;20573;-73
2023/06/19 03:53:42;;;;;;;6.50;5.53;;;21.20;75.60;;;;;;5048617;28;20439;-72
2023/06/19 03:56:28;;;;;;;6.60;5.83;;;21.30;75.60;;;;;;5046686;28;20520;-72
2023/06/19 03:59:14;;;;;;;7.90;5.70;;;21.30;75.60;;;;;;5043359;28;20552;-72
2023/06/19 04:01:59;;;;;;;7.23;5.67;;;21.40;76.20;;;;;;5041342;28;20456;-72
2023/06/19 04:04:45;;;;;;;7.10;4.80;;;21.40;76.30;;;;;;5047952;28;20440;-73
2023/06/19 04:07:31;;;;;;;7.67;4.93;;;21.40;76.50;;;;;;5043718;28;20544;-72
2023/06/19 04:10:18;;;;;;;9.50;4.20;;;21.40;77.00;;;;;;5059002;28;20446;-73
2023/06/19 04:13:04;;;;;;;8.70;5.07;;;21.40;78.00;;;;;;5057688;28;20518;-72
2023/06/19 04:15:49;;;;;;;9.43;4.63;;;21.40;78.50;;;;;;5041716;28;20534;-72
2023/06/19 04:18:35;;;;;;;7.43;4.57;;;21.30;79.20;;;;;;5059338;28;20471;-73
2023/06/19 04:21:21;;;;;;;6.20;4.63;;;21.30;79.40;;;;;;5045235;28;20440;-72
2023/06/19 04:24:08;;;;;;;5.83;4.40;;;21.20;79.80;;;;;;5041904;28;20484;-72
2023/06/19 04:26:55;;;;;;;9.47;4.30;;;21.30;79.70;;;;;;5055430;28;21065;-72
2023/06/19 04:29:41;;;;;;;6.00;3.63;;;21.30;79.40;;;;;;5054502;28;20440;-72
2023/06/19 04:32:26;;;;;;;6.97;4.37;;;21.30;79.60;;;;;;5063333;28;20959;-72
2023/06/19 04:35:12;;;;;;;4.87;3.70;;;21.30;79.30;;;;;;5051791;28;20641;-72
2023/06/19 04:38:01;;;;;;;5.63;3.30;;;21.30;79.70;;;;;;5053283;28;20478;-72
2023/06/19 04:40:46;;;;;;;6.17;3.53;;;21.20;80.10;;;;;;5054973;28;20447;-72
2023/06/19 04:43:33;;;;;;;5.13;3.80;;;21.20;80.10;;;;;;5061669;28;20468;-72
2023/06/19 04:46:20;;;;;;;4.40;3.40;;;21.20;80.90;;;;;;5041728;28;20510;-72
2023/06/19 04:49:05;;;;;;;5.60;3.50;;;21.10;81.00;;;;;;5048806;28;20530;-72
2023/06/19 04:51:50;;;;;;;3.70;3.20;;;21.10;81.50;;;;;;5049288;28;20762;-72
2023/06/19 04:54:36;;;;;;;5.07;3.37;;;21.20;81.50;;;;;;5062158;28;20443;-73
2023/06/19 04:57:22;;;;;;;3.70;3.27;;;21.30;81.60;;;;;;5048991;28;20665;-72
2023/06/19 05:00:10;;;;;;;4.60;3.73;;;21.40;81.10;;;;;;5045368;28;20447;-71
2023/06/19 05:02:59;;;;;;;8.00;3.10;;;21.40;81.00;;;;;;5051605;28;20470;-72
2023/06/19 05:05:44;;;;;;;6.07;3.77;;;21.50;80.50;;;;;;5047492;28;20464;-72
2023/06/19 05:08:30;;;;;;;4.80;3.40;;;21.50;80.60;;;;;;5042315;28;20460;-72
2023/06/19 05:11:15;;;;;;;4.67;3.53;;;21.50;81.40;;;;;;5036576;28;22328;-72
2023/06/19 05:14:01;;;;;;;4.80;3.50;;;21.40;82.00;;;;;;5039229;28;20671;-73
2023/06/19 05:16:47;;;;;;;4.20;3.60;;;21.50;81.90;;;;;;5048843;28;20446;-71
2023/06/19 05:19:33;;;;;;;4.70;3.70;;;21.60;81.70;;;;;;5062952;28;20961;-71
2023/06/19 05:22:21;;;;;;;5.00;3.63;;;21.70;81.20;;;;;;5043673;28;20442;-72
2023/06/19 05:25:07;;;;;;;4.30;3.60;;;21.70;81.00;;;;;;5047995;28;20446;-73
2023/06/19 05:27:52;;;;;;;5.83;3.93;;;21.70;80.80;;;;;;5041352;28;20849;-72
2023/06/19 05:30:38;;;;;;;8.50;4.20;;;21.80;81.30;;;;;;5051172;28;20518;-72
2023/06/19 05:33:25;;;;;;;4.70;3.60;;;21.80;81.00;;;;;;5048238;28;20997;-73
2023/06/19 05:36:10;;;;;;;6.33;3.60;;;21.90;81.10;;;;;;5038744;28;20968;-72
2023/06/19 05:38:56;;;;;;;3.93;3.20;;;21.80;81.40;;;;;;5055139;28;20462;-73
2023/06/19 05:41:41;;;;;;;6.40;3.40;;;21.90;81.40;;;;;;5045916;28;20474;-72
2023/06/19 05:44:27;;;;;;;5.20;3.77;;;21.90;81.10;;;;;;5051307;28;20490;-72
2023/06/19 05:47:12;;;;;;;4.63;3.77;;;22.00;81.30;;;;;;5047354;28;20995;-73
2023/06/19 05:49:59;;;;;;;5.60;3.90;;;22.00;80.70;;;;;;5061481;28;20438;-72
2023/06/19 05:52:45;;;;;;;6.20;3.53;;;22.00;80.90;;;;;;5048355;28;20432;-72
2023/06/19 05:55:30;;;;;;;5.03;3.60;;;22.00;80.60;;;;;;5036511;28;20474;-73
2023/06/19 05:58:19;;;;;;;4.70;3.63;;;22.00;80.90;;;;;;5046402;28;20521;-72
2023/06/19 06:01:04;;;;;;;4.90;3.30;;;22.00;80.60;;;;;;5040763;28;20471;-72
2023/06/19 06:03:50;;;;;;;4.97;3.50;;;22.10;81.60;;;;;;5045093;28;21224;-72
2023/06/19 06:06:37;;;;;;;3.70;3.30;;;22.20;80.70;;;;;;5047892;28;20815;-72
2023/06/19 06:09:22;;;;;;;4.90;3.90;;;22.40;80.60;;;;;;5046779;28;20503;-72
2023/06/19 06:12:09;;;;;;;7.07;4.00;;;22.40;80.00;;;;;;5041328;28;20440;-72
2023/06/19 06:14:54;;;;;;;6.87;3.87;;;22.50;79.40;;;;;;5047636;28;20493;-72
2023/06/19 06:17:40;;;;;;;5.80;3.60;;;22.60;78.80;;;;;;5064471;22;20470;-70
2023/06/19 06:20:25;;;;;;;8.93;3.80;;;22.60;79.30;;;;;;5028041;28;20809;-72
2023/06/19 06:23:12;;;;;;;6.70;3.37;;;22.60;78.80;;;;;;5033741;28;20473;-73
2023/06/19 06:26:02;;;;;;;5.77;3.80;;;22.70;79.10;;;;;;5043011;28;20428;-72
2023/06/19 06:28:47;;;;;;;4.60;3.93;;;22.60;78.60;;;;;;5030789;28;20543;-73
2023/06/19 06:31:33;;;;;;;3.53;3.00;;;22.60;78.90;;;;;;5034311;28;20985;-73
2023/06/19 06:34:18;;;;;;;5.73;3.80;;;22.50;78.90;;;;;;5030567;28;20448;-73
2023/06/19 06:37:04;;;;;;;4.47;3.77;;;22.60;79.10;;;;;;5036830;28;20460;-73
2023/06/19 06:39:51;;;;;;;5.60;4.23;;;22.60;80.50;;;;;;5028231;28;20444;-71
2023/06/19 06:42:36;;;;;;;8.37;3.93;;;22.70;78.40;;;;;;5024816;28;20869;-73
2023/06/19 06:45:22;;;;;;;5.17;3.40;;;22.70;78.90;;;;;;5027742;28;20444;-73
2023/06/19 06:48:07;;;;;;;6.10;4.60;;;22.60;79.50;;;;;;5027813;28;20464;-73
2023/06/19 06:50:58;;;;;;;4.87;3.93;;;22.60;78.90;;;;;;5025888;28;20437;-72
2023/06/19 06:53:44;;;;;;;5.10;3.77;;;22.70;79.30;;;;;;5022398;28;20942;-73
2023/06/19 06:56:31;;;;;;;5.03;4.03;;;22.70;79.30;;;;;;5025690;28;20445;-73
2023/06/19 06:59:16;;;;;;;5.43;3.77;;;22.80;79.00;;;;;;5023706;28;20472;-73
2023/06/19 07:02:02;;;;;;;5.40;3.80;;;22.90;79.50;;;;;;5031352;28;20452;-73
2023/06/19 07:04:47;;;;;;;5.60;4.20;;;23.10;79.90;;;;;;5025812;28;20488;-73
2023/06/19 07:07:33;;;;;;;4.90;3.90;;;23.20;79.60;;;;;;5027805;28;20455;-73
2023/06/19 07:10:18;;;;;;;4.87;4.20;;;23.30;78.80;;;;;;5033781;28;20432;-73
2023/06/19 07:13:05;;;;;;;9.57;3.90;;;23.30;79.00;;;;;;5035026;28;20441;-71
2023/06/19 07:15:51;;;;;;;6.00;4.70;;;23.40;77.40;;;;;;5021651;28;20811;-74
2023/06/19 07:18:38;;;;;;;6.23;4.20;;;23.40;75.90;;;;;;5020912;28;20852;-71
2023/06/19 07:21:24;;;;;;;7.23;4.73;;;23.50;76.60;;;;;;5019294;28;20915;-71
2023/06/19 07:24:09;;;;;;;6.00;4.40;;;23.50;75.40;;;;;;5028154;28;20514;-72
2023/06/19 07:26:56;;;;;;;11.60;4.27;;;23.50;76.60;;;;;;5034142;28;20449;-70
2023/06/19 07:29:44;;;;;;;6.40;5.07;;;23.60;75.70;;;;;;5035610;28;20480;-71
2023/06/19 07:32:30;;;;;;;6.63;5.03;;;23.60;76.00;;;;;;5023125;28;20457;-70
2023/06/19 07:35:16;;;;;;;5.40;4.77;;;23.60;74.60;;;;;;5025586;28;20436;-71
2023/06/19 07:38:01;;;;;;;7.10;5.70;;;23.70;75.10;;;;;;5024178;28;20510;-70
2023/06/19 07:40:47;;;;;;;6.40;5.03;;;23.80;75.30;;;;;;5030032;28;20798;-70
2023/06/19 07:43:32;;;;;;;7.80;5.27;;;24.00;76.10;;;;;;5019217;28;20473;-69
2023/06/19 07:46:19;;;;;;;8.87;5.63;;;24.00;70.70;;;;;;5021499;28;20472;-70
2023/06/19 07:49:04;;;;;;;5.90;4.80;;;23.90;72.30;;;;;;5042379;28;20471;-69
2023/06/19 07:51:50;;;;;;;7.30;5.90;;;23.80;71.20;;;;;;5028017;28;20492;-70
2023/06/19 07:54:35;;;;;;;6.13;5.20;;;23.80;72.50;;;;;;5039531;28;20448;-70
2023/06/19 07:57:21;;;;;;;8.67;5.30;;;24.00;73.30;;;;;;5021753;28;20444;-69
2023/06/19 08:00:10;;;;;;;11.90;5.23;;;23.90;72.10;;;;;;5024008;28;20528;-69
2023/06/19 08:02:57;;;;;;;10.80;5.93;;;23.80;71.10;;;;;;5023222;28;20812;-70
2023/06/19 08:05:43;;;;;;;9.40;5.87;;;23.70;72.50;;;;;;5021617;28;20492;-71
2023/06/19 08:08:28;;;;;;;6.77;5.70;;;23.60;74.20;;;;;;5026214;28;20459;-71
2023/06/19 08:11:14;;;;;;;15.53;6.40;;;23.60;74.90;;;;;;5028242;28;20459;-69
2023/06/19 08:13:59;;;;;;;9.90;6.20;;;23.50;74.90;;;;;;5033956;28;21070;-70
2023/06/19 08:16:46;;;;;;;12.50;6.30;;;23.50;75.00;;;;;;5021804;28;20468;-70
2023/06/19 08:19:33;;;;;;;8.17;5.80;;;23.60;73.60;;;;;;5016913;28;20476;-72
2023/06/19 08:22:18;;;;;;;7.47;5.47;;;23.70;72.80;;;;;;5034106;28;20444;-72
2023/06/19 08:25:05;;;;;;;8.50;5.57;;;23.70;73.40;;;;;;5032330;28;20480;-72
2023/06/19 08:27:51;;;;;;;7.53;5.67;;;23.60;74.10;;;;;;5016483;28;20473;-72
2023/06/19 08:30:36;;;;;;;8.43;5.67;;;23.70;73.50;;;;;;5029059;28;20806;-72
2023/06/19 08:33:22;;;;;;;12.63;7.67;;;23.60;75.30;;;;;;5034249;28;20433;-70
2023/06/19 08:36:09;;;;;;;6.30;5.70;;;23.70;73.60;;;;;;5033953;28;21007;-72
2023/06/19 08:38:54;;;;;;;8.40;6.27;;;23.70;75.00;;;;;;5040549;28;20596;-72
2023/06/19 08:41:41;;;;;;;7.60;6.90;;;23.70;74.10;;;;;;5025311;28;20950;-72
2023/06/19 08:44:26;;;;;;;11.83;6.57;;;23.80;74.30;;;;;;5029244;28;20480;-72
2023/06/19 08:47:11;;;;;;;9.63;6.20;;;23.80;73.90;;;;;;5020757;28;20459;-72
2023/06/19 08:49:57;;;;;;;7.13;6.17;;;23.80;73.70;;;;;;5036242;28;20452;-72
2023/06/19 08:52:44;;;;;;;10.40;7.17;;;23.80;74.40;;;;;;5033280;28;20504;-71
2023/06/19 08:55:29;;;;;;;9.00;6.30;;;23.90;74.00;;;;;;5039694;28;20451;-72
2023/06/19 08:58:22;;;;;;;8.13;6.40;;;24.00;76.10;;;;;;5034365;28;20464;-72
2023/06/19 09:01:08;;;;;;;8.37;6.10;;;24.10;73.30;;;;;;5029582;28;20448;-71
2023/06/19 09:03:54;;;;;;;8.67;7.10;;;24.20;73.00;;;;;;5029772;28;20997;-72
2023/06/19 09:06:48;;;;;;;7.50;6.10;;;24.40;73.70;;;;;;5032808;28;20468;-72
2023/06/19 09:09:35;;;;;;;11.13;6.27;;;24.30;73.10;;;;;;5026686;28;20533;-72
2023/06/19 09:12:20;;;;;;;8.17;5.90;;;24.50;73.50;;;;;;5023523;28;20447;-72
2023/06/19 09:15:13;;;;;;;10.90;6.93;;;24.70;72.30;;;;;;5020704;28;20444;-72
2023/06/19 09:18:06;;;;;;;8.23;6.53;;;24.80;70.20;;;;;;5030175;28;20506;-72
2023/06/19 09:20:54;;;;;;;8.00;6.60;;;24.80;70.70;;;;;;5035570;28;20468;-72
2023/06/19 09:23:40;;;;;;;9.20;6.17;;;24.70;69.90;;;;;;5033410;28;20435;-72
2023/06/19 09:26:27;;;;;;;11.10;7.20;;;24.50;70.70;;;;;;5022505;28;20662;-72
2023/06/19 09:29:13;;;;;;;8.77;7.10;;;24.40;71.00;;;;;;5039402;28;20510;-72
2023/06/19 09:31:59;;;;;;;8.00;7.10;;;24.40;71.20;;;;;;5028583;28;20450;-72
2023/06/19 09:34:45;;;;;;;8.77;6.70;;;24.40;70.30;;;;;;5029880;28;20457;-72
2023/06/19 09:37:31;;;;;;;11.53;7.50;;;24.30;70.70;;;;;;5033400;28;20483;-72
2023/06/19 09:40:17;;;;;;;7.20;6.50;;;24.50;70.50;;;;;;5018260;28;20456;-71
2023/06/19 09:43:07;;;;;;;10.03;7.23;;;24.40;70.40;;;;;;5038869;28;20490;-71
2023/06/19 09:45:56;;;;;;;7.83;7.13;;;24.40;70.10;;;;;;5026946;28;21029;-72
2023/06/19 09:48:43;;;;;;;15.43;7.57;;;24.40;71.40;;;;;;5035445;28;20659;-73
2023/06/19 09:51:33;;;;;;;10.90;9.07;;;24.40;69.40;;;;;;5019742;28;20813;-71
2023/06/19 09:54:21;;;;;;;10.83;7.17;;;24.40;70.60;;;;;;5018759;28;20441;-73
2023/06/19 09:57:07;;;;;;;7.43;6.70;;;24.50;73.40;;;;;;5017371;28;21026;-72
2023/06/19 09:59:57;;;;;;;20.40;7.87;;;24.70;71.50;;;;;;5020486;28;20445;-72
2023/06/19 10:02:43;;;;;;;8.63;6.73;;;24.80;71.30;;;;;;5027586;28;20438;-72
2023/06/19 10:05:33;;;;;;;7.13;6.43;;;24.70;68.70;;;;;;5027982;28;20541;-73
2023/06/19 10:08:29;;;;;;;7.63;6.83;;;24.70;70.40;;;;;;5026892;28;20472;-72
2023/06/19 10:11:14;;;;;;;8.90;6.83;;;24.90;70.00;;;;;;5025294;28;20456;-71
2023/06/19 10:14:07;;;;;;;10.50;7.00;;;25.10;69.00;;;;;;5025984;28;20477;-72
2023/06/19 10:16:54;;;;;;;7.50;6.60;;;25.30;66.80;;;;;;5025843;28;20485;-72
2023/06/19 10:19:49;;;;;;;10.03;8.13;;;25.60;68.10;;;;;;5024561;28;20554;-72
2023/06/19 10:22:34;;;;;;;11.90;7.27;;;25.50;64.30;;;;;;5022061;28;20452;-72
2023/06/19 10:25:24;;;;;;;8.33;6.23;;;25.50;65.10;;;;;;5022671;28;20480;-73
2023/06/19 10:28:18;;;;;;;8.33;6.97;;;25.60;64.00;;;;;;5031564;28;20470;-73
2023/06/19 10:31:05;;;;;;;10.13;7.30;;;25.80;63.20;;;;;;5019193;28;20797;-72
2023/06/19 10:33:52;;;;;;;8.47;6.73;;;25.80;62.00;;;;;;5024460;28;20972;-72
2023/06/19 10:36:38;;;;;;;8.70;6.70;;;25.80;62.40;;;;;;5026558;28;20603;-72
2023/06/19 10:39:23;;;;;;;9.00;6.97;;;25.90;63.90;;;;;;5031119;28;20468;-73
2023/06/19 10:42:10;;;;;;;10.00;6.80;;;25.90;62.60;;;;;;5024555;28;20527;-72
2023/06/19 10:45:02;;;;;;;7.93;6.30;;;26.10;63.70;;;;;;5027284;28;20587;-72
2023/06/19 10:47:48;;;;;;;7.80;6.90;;;26.30;62.00;;;;;;5023511;28;20475;-71
2023/06/19 10:50:40;;;;;;;7.70;6.70;;;26.30;58.50;;;;;;5018148;28;20487;-72
2023/06/19 10:53:27;;;;;;;8.33;6.73;;;26.30;57.90;;;;;;5018963;28;20467;-72
2023/06/19 10:56:12;;;;;;;10.13;6.57;;;26.30;58.30;;;;;;5024909;28;20523;-72
2023/06/19 10:58:59;;;;;;;10.40;5.90;;;26.20;58.00;;;;;;5026198;28;20561;-72
2023/06/19 11:01:47;;;;;;;8.33;6.73;;;26.40;59.80;;;;;;5023612;28;20766;-73
2023/06/19 11:04:32;;;;;;;8.93;6.47;;;26.50;59.90;;;;;;5026865;28;20632;-73
2023/06/19 11:07:19;;;;;;;8.07;6.43;;;26.60;57.90;;;;;;5020991;28;20450;-72
2023/06/19 11:10:05;;;;;;;7.97;7.20;;;26.70;58.90;;;;;;5028822;28;20513;-74
2023/06/19 11:12:54;;;;;;;8.03;6.10;;;26.90;56.40;;;;;;5020968;28;20950;-75
2023/06/19 11:15:39;;;;;;;7.17;6.37;;;26.80;52.80;;;;;;5020632;28;21044;-75
2023/06/19 11:18:25;;;;;;;8.40;6.00;;;26.80;52.60;;;;;;5024202;28;20519;-75
2023/06/19 11:21:11;;;;;;;8.27;7.03;;;26.90;54.70;;;;;;5022328;28;20457;-75
2023/06/19 11:24:00;;;;;;;7.23;6.50;;;27.10;48.60;;;;;;5030625;28;20466;-75
2023/06/19 11:26:50;;;;;;;7.03;5.80;;;27.20;49.30;;;;;;5026291;28;20578;-75
2023/06/19 11:29:36;;;;;;;6.77;6.10;;;27.20;48.60;;;;;;5019433;28;20524;-75
2023/06/19 11:32:24;;;;;;;7.03;5.13;;;27.10;52.00;;;;;;5024646;28;20504;-76
2023/06/19 11:35:11;;;;;;;7.80;6.10;;;27.00;46.50;;;;;;5020436;28;20451;-76
2023/06/19 11:37:57;;;;;;;5.63;5.03;;;26.90;46.40;;;;;;5023069;28;20599;-75
2023/06/19 11:40:45;;;;;;;5.60;5.10;;;27.10;47.60;;;;;;5023776;28;20923;-74
2023/06/19 11:43:32;;;;;;;14.30;5.97;;;27.30;47.40;;;;;;5026814;28;20464;-74
2023/06/19 11:46:19;;;;;;;7.77;6.10;;;27.50;47.00;;;;;;5021393;28;20475;-75
2023/06/19 11:49:12;;;;;;;5.97;5.10;;;27.40;43.90;;;;;;5022412;28;21008;-75
2023/06/19 11:51:58;;;;;;;8.17;5.90;;;27.40;44.30;;;;;;5020409;28;20441;-76
2023/06/19 11:54:43;;;;;;;6.80;6.10;;;27.50;45.00;;;;;;5025773;28;20464;-75
2023/06/19 11:57:31;;;;;;;12.40;5.67;;;27.40;42.70;;;;;;5015580;28;20597;-75
2023/06/19 12:00:17;;;;;;;6.30;5.70;;;27.50;45.70;;;;;;5024288;28;20944;-75
2023/06/19 12:03:03;;;;;;;9.23;5.40;;;27.60;44.90;;;;;;5024588;28;20456;-75
2023/06/19 12:05:48;;;;;;;6.40;5.70;;;27.80;44.20;;;;;;5025414;28;20539;-75
2023/06/19 12:08:37;;;;;;;6.70;5.57;;;27.90;44.20;;;;;;5028107;28;20461;-75
2023/06/19 12:11:22;;;;;;;7.13;5.67;;;28.10;45.00;;;;;;5022585;28;20450;-74
2023/06/19 12:14:10;;;;;;;7.00;5.73;;;28.10;39.40;;;;;;5020259;28;20459;-75
2023/06/19 12:16:56;;;;;;;6.40;5.10;;;28.20;37.50;;;;;;5025198;28;20503;-75
2023/06/19 12:19:41;;;;;;;7.57;6.13;;;27.70;39.10;;;;;;5069479;22;20506;-76
2023/06/19 12:22:27;;;;;;;9.33;7.60;;;27.70;39.90;;;;;;5064296;28;20455;-75
2023/06/19 12:25:13;;;;;;;8.00;5.53;;;27.90;44.40;;;;;;5064592;28;20840;-76
2023/06/19 12:27:58;;;;;;;7.70;5.57;;;28.00;43.60;;;;;;5062039;28;20600;-75
2023/06/19 12:30:45;;;;;;;7.00;5.40;;;28.10;40.70;;;;;;5045754;28;20464;-76
2023/06/19 12:33:33;;;;;;;9.93;5.83;;;28.00;38.90;;;;;;5053076;28;20504;-76
2023/06/19 12:36:19;;;;;;;5.87;5.23;;;27.60;38.20;;;;;;5047983;28;20448;-75
2023/06/19 12:39:06;;;;;;;9.27;5.93;;;27.50;39.70;;;;;;5046951;28;20471;-76
2023/06/19 12:41:51;;;;;;;6.03;5.00;;;27.50;40.80;;;;;;5042870;28;20474;-75
2023/06/19 12:44:36;;;;;;;6.20;5.60;;;27.60;46.30;;;;;;5047530;28;20443;-75
2023/06/19 12:47:24;;;;;;;9.10;5.30;;;27.60;41.60;;;;;;5044926;28;20445;-75
2023/06/19 12:50:11;;;;;;;7.20;5.50;;;27.60;38.70;;;;;;5046616;28;20447;-74
2023/06/19 12:52:56;;;;;;;6.80;4.70;;;27.50;39.10;;;;;;5048946;28;21029;-76
2023/06/19 12:55:42;;;;;;;7.93;7.10;;;27.50;40.30;;;;;;5048065;28;20448;-74
2023/06/19 12:58:28;;;;;;;7.33;5.50;;;27.60;40.00;;;;;;5049968;28;20479;-75
2023/06/19 13:01:13;;;;;;;6.40;4.73;;;27.80;41.80;;;;;;5047648;28;20456;-76
2023/06/19 13:04:00;;;;;;;6.40;5.20;;;27.90;39.50;;;;;;5044075;28;20870;-76
2023/06/19 13:06:45;;;;;;;6.07;5.47;;;27.90;36.80;;;;;;5044957;28;21102;-75
2023/06/19 13:09:31;;;;;;;7.90;5.27;;;28.00;38.40;;;;;;5042105;28;20475;-76
2023/06/19 13:12:16;;;;;;;6.80;5.60;;;28.20;38.50;;;;;;5050994;28;20450;-75
2023/06/19 13:15:02;;;;;;;6.00;5.40;;;28.40;36.80;;;;;;5046429;28;20451;-75
2023/06/19 13:17:47;;;;;;;5.80;5.13;;;28.60;35.50;;;;;;5050104;28;20833;-76
2023/06/19 13:20:34;;;;;;;7.23;5.33;;;28.70;35.60;;;;;;5050045;28;20460;-75
2023/06/19 13:23:20;;;;;;;6.40;5.00;;;28.60;35.60;;;;;;5046295;28;20485;-76
2023/06/19 13:26:07;;;;;;;6.70;5.63;;;28.70;39.60;;;;;;5044221;28;20458;-76
2023/06/19 13:28:53;;;;;;;8.03;5.47;;;28.60;33.70;;;;;;5045722;28;20464;-75
2023/06/19 13:31:38;;;;;;;13.30;5.60;;;28.60;33.90;;;;;;5046436;28;20455;-76
2023/06/19 13:34:24;;;;;;;9.60;5.23;;;28.70;37.10;;;;;;5044326;28;20452;-75
2023/06/19 13:37:11;;;;;;;6.83;5.00;;;28.90;35.50;;;;;;5050155;28;21002;-75
2023/06/19 13:39:56;;;;;;;8.73;5.60;;;29.00;34.90;;;;;;5050642;28;21020;-76
2023/06/19 13:42:42;;;;;;;6.57;5.50;;;29.30;33.60;;;;;;5051568;28;20985;-75
2023/06/19 13:45:27;;;;;;;5.90;5.30;;;29.40;29.50;;;;;;5050828;28;20472;-76
2023/06/19 13:48:13;;;;;;;11.70;4.47;;;29.50;31.20;;;;;;5051165;28;20463;-76
2023/06/19 13:50:59;;;;;;;9.60;5.23;;;29.70;29.80;;;;;;5047099;28;20545;-75
2023/06/19 13:53:46;;;;;;;8.77;5.60;;;29.80;30.60;;;;;;5048163;28;20503;-75
2023/06/19 13:56:32;;;;;;;6.17;5.57;;;29.80;27.60;;;;;;5042121;28;22859;-76
2023/06/19 13:59:18;;;;;;;6.53;5.27;;;30.00;28.40;;;;;;5057246;28;20459;-75
2023/06/19 14:02:03;;;;;;;5.47;4.97;;;30.10;28.90;;;;;;5052998;28;20497;-75
2023/06/19 14:04:49;;;;;;;7.57;4.80;;;30.10;29.50;;;;;;5052442;28;20955;-76
2023/06/19 14:07:35;;;;;;;13.63;5.13;;;30.10;30.10;;;;;;5049259;28;20961;-76
2023/06/19 14:10:21;;;;;;;6.83;5.40;;;30.20;29.70;;;;;;5046517;28;20449;-73
2023/06/19 14:13:07;;;;;;;6.40;5.33;;;30.20;27.90;;;;;;5047979;28;21121;-75
2023/06/19 14:15:54;;;;;;;13.30;5.57;;;29.80;28.30;;;;;;5040944;28;20445;-76
2023/06/19 14:18:39;;;;;;;11.30;6.70;;;29.80;28.70;;;;;;5035688;28;20534;-76
2023/06/19 14:21:25;;;;;;;9.60;5.67;;;29.50;27.40;;;;;;5049786;28;20462;-74
2023/06/19 14:24:11;;;;;;;6.70;6.00;;;29.20;30.00;;;;;;5046371;28;20787;-75